sensor_id;sensor_type;location;lat;lon;timestamp;temperature;humidity
2212;DHT22;48849;48.758;9.158;2023-10-19T00:02:05;13.90;99.90
2212;DHT22;48849;48.758;9.158;2023-10-19T00:04:31;13.90;99.90
2212;DHT22;48849;48.758;9.158;2023-10-19T00:06:59;14.20;99.90
2212;DHT22;48849;48.758;9.158;2023-10-19T00:09:26;14.50;99.90
2212;DHT22;48849;48.758;9.158;2023-10-19T00:11:57;13.90;99.90
2212;DHT22;48849;48.758;9.158;2023-10-19T00:14:23;13.90;99.90
2212;DHT22;48849;48.758;9.158;2023-10-19T00:16:51;13.90;99.90
2212;DHT22;48849;48.758;9.158;2023-10-19T00:19:22;13.90;99.90
2212;DHT22;48849;48.758;9.158;2023-10-19T00:21:48;14.00;99.90
2212;DHT22;48849;48.758;9.158;2023-10-19T00:24:18;14.00;99.90
2212;DHT22;48849;48.758;9.158;2023-10-19T00:26:45;14.00;99.90
2212;DHT22;48849;48.758;9.158;2023-10-19T00:29:13;14.00;99.90
2212;DHT22;48849;48.758;9.158;2023-10-19T00:31:56;14.20;99.90
2212;DHT22;48849;48.758;9.158;2023-10-19T00:34:23;14.00;99.90
2212;DHT22;48849;48.758;9.158;2023-10-19T00:36:50;14.00;99.90
2212;DHT22;48849;48.758;9.158;2023-10-19T00:39:19;14.20;99.90
2212;DHT22;48849;48.758;9.158;2023-10-19T00:41:47;14.00;99.90
2212;DHT22;48849;48.758;9.158;2023-10-19T00:44:16;14.00;99.90
2212;DHT22;48849;48.758;9.158;2023-10-19T00:46:48;14.30;99.90
2212;DHT22;48849;48.758;9.158;2023-10-19T00:49:27;14.00;99.90
2212;DHT22;48849;48.758;9.158;2023-10-19T00:51:58;13.90;99.90
2212;DHT22;48849;48.758;9.158;2023-10-19T00:54:32;14.00;99.90
2212;DHT22;48849;48.758;9.158;2023-10-19T00:57:01;14.00;99.90
2212;DHT22;48849;48.758;9.158;2023-10-19T00:59:34;13.90;99.90
2212;DHT22;48849;48.758;9.158;2023-10-19T01:02:08;13.90;99.90
2212;DHT22;48849;48.758;9.158;2023-10-19T01:04:46;14.00;99.90
2212;DHT22;48849;48.758;9.158;2023-10-19T01:07:16;14.00;99.90
2212;DHT22;48849;48.758;9.158;2023-10-19T01:09:49;14.00;99.90
2212;DHT22;48849;48.758;9.158;2023-10-19T01:12:19;13.90;99.90
2212;DHT22;48849;48.758;9.158;2023-10-19T01:15:08;14.00;99.90
2212;DHT22;48849;48.758;9.158;2023-10-19T01:17:38;14.20;99.90
2212;DHT22;48849;48.758;9.158;2023-10-19T01:20:09;14.00;99.90
2212;DHT22;48849;48.758;9.158;2023-10-19T01:22:48;14.00;99.90
2212;DHT22;48849;48.758;9.158;2023-10-19T01:25:19;14.00;99.90
2212;DHT22;48849;48.758;9.158;2023-10-19T01:27:51;14.00;99.90
2212;DHT22;48849;48.758;9.158;2023-10-19T01:30:23;14.00;99.90
2212;DHT22;48849;48.758;9.158;2023-10-19T01:32:52;14.00;99.90
2212;DHT22;48849;48.758;9.158;2023-10-19T01:35:19;14.10;99.90
2212;DHT22;48849;48.758;9.158;2023-10-19T01:37:47;14.10;99.90
2212;DHT22;48849;48.758;9.158;2023-10-19T01:40:13;14.10;99.90
2212;DHT22;48849;48.758;9.158;2023-10-19T01:42:45;14.20;99.90
2212;DHT22;48849;48.758;9.158;2023-10-19T01:45:11;14.20;99.90
2212;DHT22;48849;48.758;9.158;2023-10-19T01:47:38;14.10;99.90
2212;DHT22;48849;48.758;9.158;2023-10-19T01:50:07;14.30;99.90
2212;DHT22;48849;48.758;9.158;2023-10-19T01:52:46;14.20;99.90
2212;DHT22;48849;48.758;9.158;2023-10-19T01:55:13;14.20;99.90
2212;DHT22;48849;48.758;9.158;2023-10-19T01:57:46;14.20;99.90
2212;DHT22;48849;48.758;9.158;2023-10-19T02:00:12;14.20;99.90
2212;DHT22;48849;48.758;9.158;2023-10-19T02:02:48;14.20;99.90
2212;DHT22;48849;48.758;9.158;2023-10-19T02:05:14;14.20;99.90
2212;DHT22;48849;48.758;9.158;2023-10-19T02:07:41;14.20;99.90
2212;DHT22;48849;48.758;9.158;2023-10-19T02:10:10;14.20;99.90
2212;DHT22;48849;48.758;9.158;2023-10-19T02:12:37;14.20;99.90
2212;DHT22;48849;48.758;9.158;2023-10-19T02:15:07;14.20;99.90
2212;DHT22;48849;48.758;9.158;2023-10-19T02:17:34;14.20;99.90
2212;DHT22;48849;48.758;9.158;2023-10-19T02:20:00;14.40;99.90
2212;DHT22;48849;48.758;9.158;2023-10-19T02:22:28;14.20;99.90
2212;DHT22;48849;48.758;9.158;2023-10-19T02:24:54;14.20;99.90
2212;DHT22;48849;48.758;9.158;2023-10-19T02:27:22;14.20;99.90
2212;DHT22;48849;48.758;9.158;2023-10-19T02:29:48;14.30;99.90
2212;DHT22;48849;48.758;9.158;2023-10-19T02:32:16;14.20;99.90
2212;DHT22;48849;48.758;9.158;2023-10-19T02:34:44;14.40;99.90
2212;DHT22;48849;48.758;9.158;2023-10-19T02:37:12;14.20;99.90
2212;DHT22;48849;48.758;9.158;2023-10-19T02:39:39;14.10;99.90
2212;DHT22;48849;48.758;9.158;2023-10-19T02:42:05;14.10;99.90
2212;DHT22;48849;48.758;9.158;2023-10-19T02:44:34;14.10;99.90
2212;DHT22;48849;48.758;9.158;2023-10-19T02:47:03;14.10;99.90
2212;DHT22;48849;48.758;9.158;2023-10-19T02:49:34;14.10;99.90
2212;DHT22;48849;48.758;9.158;2023-10-19T02:52:03;14.30;99.90
2212;DHT22;48849;48.758;9.158;2023-10-19T02:54:31;14.20;99.90
2212;DHT22;48849;48.758;9.158;2023-10-19T02:56:58;14.10;99.90
2212;DHT22;48849;48.758;9.158;2023-10-19T02:59:27;14.20;99.90
2212;DHT22;48849;48.758;9.158;2023-10-19T03:01:58;14.10;99.90
2212;DHT22;48849;48.758;9.158;2023-10-19T03:04:33;14.80;99.90
2212;DHT22;48849;48.758;9.158;2023-10-19T03:07:01;14.10;99.90
2212;DHT22;48849;48.758;9.158;2023-10-19T03:09:28;14.10;99.90
2212;DHT22;48849;48.758;9.158;2023-10-19T03:11:56;14.10;99.90
2212;DHT22;48849;48.758;9.158;2023-10-19T03:14:25;14.30;99.90
2212;DHT22;48849;48.758;9.158;2023-10-19T03:16:52;14.20;99.90
2212;DHT22;48849;48.758;9.158;2023-10-19T03:19:19;14.10;99.90
2212;DHT22;48849;48.758;9.158;2023-10-19T03:21:46;14.10;99.90
2212;DHT22;48849;48.758;9.158;2023-10-19T03:24:15;14.10;99.90
2212;DHT22;48849;48.758;9.158;2023-10-19T03:26:48;13.70;99.90
2212;DHT22;48849;48.758;9.158;2023-10-19T03:29:14;14.30;99.90
2212;DHT22;48849;48.758;9.158;2023-10-19T03:31:44;14.70;99.90
2212;DHT22;48849;48.758;9.158;2023-10-19T03:34:11;14.10;99.90
2212;DHT22;48849;48.758;9.158;2023-10-19T03:36:40;14.30;99.90
2212;DHT22;48849;48.758;9.158;2023-10-19T03:39:08;14.10;99.90
2212;DHT22;48849;48.758;9.158;2023-10-19T03:41:39;14.10;99.90
2212;DHT22;48849;48.758;9.158;2023-10-19T03:44:07;14.10;99.90
2212;DHT22;48849;48.758;9.158;2023-10-19T03:46:39;14.10;99.90
2212;DHT22;48849;48.758;9.158;2023-10-19T03:49:18;14.20;99.90
2212;DHT22;48849;48.758;9.158;2023-10-19T03:51:46;14.10;99.90
2212;DHT22;48849;48.758;9.158;2023-10-19T03:54:25;14.20;99.90
2212;DHT22;48849;48.758;9.158;2023-10-19T03:56:53;14.10;99.90
2212;DHT22;48849;48.758;9.158;2023-10-19T03:59:21;14.10;99.90
2212;DHT22;48849;48.758;9.158;2023-10-19T04:01:55;14.20;99.90
2212;DHT22;48849;48.758;9.158;2023-10-19T04:04:22;14.10;99.90
2212;DHT22;48849;48.758;9.158;2023-10-19T04:06:50;14.10;99.90
2212;DHT22;48849;48.758;9.158;2023-10-19T04:09:23;14.10;99.90
2212;DHT22;48849;48.758;9.158;2023-10-19T04:11:54;14.20;99.90
2212;DHT22;48849;48.758;9.158;2023-10-19T04:14:21;14.50;99.90
2212;DHT22;48849;48.758;9.158;2023-10-19T04:16:48;14.00;99.90
2212;DHT22;48849;48.758;9.158;2023-10-19T04:19:15;14.00;99.90
2212;DHT22;48849;48.758;9.158;2023-10-19T04:21:42;14.60;99.90
2212;DHT22;48849;48.758;9.158;2023-10-19T04:24:13;14.20;99.90
2212;DHT22;48849;48.758;9.158;2023-10-19T04:26:40;14.10;99.90
2212;DHT22;48849;48.758;9.158;2023-10-19T04:29:08;14.10;99.90
2212;DHT22;48849;48.758;9.158;2023-10-19T04:31:37;14.10;99.90
2212;DHT22;48849;48.758;9.158;2023-10-19T04:34:13;14.10;99.90
2212;DHT22;48849;48.758;9.158;2023-10-19T04:36:39;14.10;99.90
2212;DHT22;48849;48.758;9.158;2023-10-19T04:39:08;14.10;99.90
2212;DHT22;48849;48.758;9.158;2023-10-19T04:41:40;14.10;99.90
2212;DHT22;48849;48.758;9.158;2023-10-19T04:44:07;14.10;99.90
2212;DHT22;48849;48.758;9.158;2023-10-19T04:46:34;14.20;99.90
2212;DHT22;48849;48.758;9.158;2023-10-19T04:49:01;14.10;99.90
2212;DHT22;48849;48.758;9.158;2023-10-19T04:51:29;14.10;99.90
2212;DHT22;48849;48.758;9.158;2023-10-19T04:53:56;14.10;99.90
2212;DHT22;48849;48.758;9.158;2023-10-19T04:56:22;14.30;99.90
2212;DHT22;48849;48.758;9.158;2023-10-19T04:58:51;14.10;99.90
2212;DHT22;48849;48.758;9.158;2023-10-19T05:01:18;14.10;99.90
2212;DHT22;48849;48.758;9.158;2023-10-19T05:03:44;14.10;99.90
2212;DHT22;48849;48.758;9.158;2023-10-19T05:06:11;14.10;99.90
2212;DHT22;48849;48.758;9.158;2023-10-19T05:08:39;14.40;99.90
2212;DHT22;48849;48.758;9.158;2023-10-19T05:11:06;14.10;99.90
2212;DHT22;48849;48.758;9.158;2023-10-19T05:13:32;14.50;99.90
2212;DHT22;48849;48.758;9.158;2023-10-19T05:16:01;14.20;99.90
2212;DHT22;48849;48.758;9.158;2023-10-19T05:18:28;14.50;99.90
2212;DHT22;48849;48.758;9.158;2023-10-19T05:20:56;14.10;99.90
2212;DHT22;48849;48.758;9.158;2023-10-19T05:23:23;14.10;99.90
2212;DHT22;48849;48.758;9.158;2023-10-19T05:25:50;14.20;99.90
2212;DHT22;48849;48.758;9.158;2023-10-19T05:28:19;14.50;99.90
2212;DHT22;48849;48.758;9.158;2023-10-19T05:30:47;14.20;99.90
2212;DHT22;48849;48.758;9.158;2023-10-19T05:33:16;14.10;99.90
2212;DHT22;48849;48.758;9.158;2023-10-19T05:35:46;14.10;99.90
2212;DHT22;48849;48.758;9.158;2023-10-19T05:38:13;14.10;99.90
2212;DHT22;48849;48.758;9.158;2023-10-19T05:40:39;14.10;99.90
2212;DHT22;48849;48.758;9.158;2023-10-19T05:43:08;14.20;99.90
2212;DHT22;48849;48.758;9.158;2023-10-19T05:45:35;14.20;99.90
2212;DHT22;48849;48.758;9.158;2023-10-19T05:48:02;14.20;99.90
2212;DHT22;48849;48.758;9.158;2023-10-19T05:50:33;14.20;99.90
2212;DHT22;48849;48.758;9.158;2023-10-19T05:53:00;14.20;99.90
2212;DHT22;48849;48.758;9.158;2023-10-19T05:55:28;14.80;99.90
2212;DHT22;48849;48.758;9.158;2023-10-19T05:57:55;14.20;99.90
2212;DHT22;48849;48.758;9.158;2023-10-19T06:00:24;14.40;99.90
2212;DHT22;48849;48.758;9.158;2023-10-19T06:02:52;13.90;99.90
2212;DHT22;48849;48.758;9.158;2023-10-19T06:05:21;14.70;99.90
2212;DHT22;48849;48.758;9.158;2023-10-19T06:07:50;14.20;99.90
2212;DHT22;48849;48.758;9.158;2023-10-19T06:10:19;14.20;99.90
2212;DHT22;48849;48.758;9.158;2023-10-19T06:12:49;14.10;99.90
2212;DHT22;48849;48.758;9.158;2023-10-19T06:15:18;14.10;99.90
2212;DHT22;48849;48.758;9.158;2023-10-19T06:17:46;14.20;99.90
2212;DHT22;48849;48.758;9.158;2023-10-19T06:20:14;14.20;99.90
2212;DHT22;48849;48.758;9.158;2023-10-19T06:22:50;14.20;99.90
2212;DHT22;48849;48.758;9.158;2023-10-19T06:25:18;14.60;99.90
2212;DHT22;48849;48.758;9.158;2023-10-19T06:27:46;14.70;99.90
2212;DHT22;48849;48.758;9.158;2023-10-19T06:30:13;14.30;99.90
2212;DHT22;48849;48.758;9.158;2023-10-19T06:32:45;14.30;99.90
2212;DHT22;48849;48.758;9.158;2023-10-19T06:35:12;14.40;99.90
2212;DHT22;48849;48.758;9.158;2023-10-19T06:37:39;14.30;99.90
2212;DHT22;48849;48.758;9.158;2023-10-19T06:40:12;14.30;99.90
2212;DHT22;48849;48.758;9.158;2023-10-19T06:42:47;14.30;99.90
2212;DHT22;48849;48.758;9.158;2023-10-19T07:25:46;14.30;99.90
2212;DHT22;48849;48.758;9.158;2023-10-19T07:28:18;14.40;99.90
2212;DHT22;48849;48.758;9.158;2023-10-19T07:30:47;14.40;99.90
2212;DHT22;48849;48.758;9.158;2023-10-19T07:33:16;14.40;99.90
2212;DHT22;48849;48.758;9.158;2023-10-19T07:35:45;14.40;99.90
2212;DHT22;48849;48.758;9.158;2023-10-19T07:38:13;14.40;99.90
2212;DHT22;48849;48.758;9.158;2023-10-19T07:40:40;14.40;99.90
2212;DHT22;48849;48.758;9.158;2023-10-19T07:43:09;14.40;99.90
2212;DHT22;48849;48.758;9.158;2023-10-19T07:45:36;14.40;99.90
2212;DHT22;48849;48.758;9.158;2023-10-19T07:48:08;14.50;99.90
2212;DHT22;48849;48.758;9.158;2023-10-19T07:50:37;14.50;99.90
2212;DHT22;48849;48.758;9.158;2023-10-19T07:53:06;14.50;99.90
2212;DHT22;48849;48.758;9.158;2023-10-19T07:55:34;14.60;99.90
2212;DHT22;48849;48.758;9.158;2023-10-19T07:58:03;14.80;99.90
2212;DHT22;48849;48.758;9.158;2023-10-19T08:00:32;14.50;99.90
2212;DHT22;48849;48.758;9.158;2023-10-19T08:03:00;14.70;99.90
2212;DHT22;48849;48.758;9.158;2023-10-19T08:05:29;14.60;99.90
2212;DHT22;48849;48.758;9.158;2023-10-19T08:07:57;14.60;99.90
2212;DHT22;48849;48.758;9.158;2023-10-19T08:10:24;14.60;99.90
2212;DHT22;48849;48.758;9.158;2023-10-19T08:12:52;14.60;99.90
2212;DHT22;48849;48.758;9.158;2023-10-19T08:15:20;14.50;99.90
2212;DHT22;48849;48.758;9.158;2023-10-19T08:17:50;14.70;99.90
2212;DHT22;48849;48.758;9.158;2023-10-19T08:20:19;14.60;99.90
2212;DHT22;48849;48.758;9.158;2023-10-19T08:22:50;14.50;99.90
2212;DHT22;48849;48.758;9.158;2023-10-19T08:25:17;14.50;99.90
2212;DHT22;48849;48.758;9.158;2023-10-19T08:27:46;14.60;99.90
2212;DHT22;48849;48.758;9.158;2023-10-19T10:14:54;15.40;99.90
2212;DHT22;48849;48.758;9.158;2023-10-19T10:17:22;15.80;99.90
2212;DHT22;48849;48.758;9.158;2023-10-19T10:19:49;15.50;99.90
2212;DHT22;48849;48.758;9.158;2023-10-19T10:22:21;15.50;99.90
2212;DHT22;48849;48.758;9.158;2023-10-19T10:24:59;15.50;99.90
2212;DHT22;48849;48.758;9.158;2023-10-19T10:27:35;15.50;99.90
2212;DHT22;48849;48.758;9.158;2023-10-19T10:30:05;15.50;99.90
2212;DHT22;48849;48.758;9.158;2023-10-19T10:32:43;15.50;99.90
2212;DHT22;48849;48.758;9.158;2023-10-19T10:35:58;15.70;99.90
2212;DHT22;48849;48.758;9.158;2023-10-19T10:38:33;15.50;99.90
2212;DHT22;48849;48.758;9.158;2023-10-19T10:41:04;15.50;99.90
2212;DHT22;48849;48.758;9.158;2023-10-19T10:43:56;15.50;99.90
2212;DHT22;48849;48.758;9.158;2023-10-19T10:46:31;15.50;99.90
2212;DHT22;48849;48.758;9.158;2023-10-19T10:48:58;15.60;99.90
2212;DHT22;48849;48.758;9.158;2023-10-19T10:51:27;15.60;99.90
2212;DHT22;48849;48.758;9.158;2023-10-19T10:53:54;15.50;99.90
2212;DHT22;48849;48.758;9.158;2023-10-19T10:56:23;15.60;99.90
2212;DHT22;48849;48.758;9.158;2023-10-19T10:58:50;15.60;99.90
2212;DHT22;48849;48.758;9.158;2023-10-19T11:01:28;15.80;99.90
2212;DHT22;48849;48.758;9.158;2023-10-19T11:04:07;15.60;99.90
2212;DHT22;48849;48.758;9.158;2023-10-19T11:06:46;15.80;99.90
2212;DHT22;48849;48.758;9.158;2023-10-19T11:09:14;15.60;99.90
2212;DHT22;48849;48.758;9.158;2023-10-19T11:11:43;15.70;99.90
2212;DHT22;48849;48.758;9.158;2023-10-19T11:14:11;15.60;99.90
2212;DHT22;48849;48.758;9.158;2023-10-19T11:16:38;15.70;99.90
2212;DHT22;48849;48.758;9.158;2023-10-19T11:19:07;15.60;99.90
2212;DHT22;48849;48.758;9.158;2023-10-19T11:21:35;15.60;99.90
2212;DHT22;48849;48.758;9.158;2023-10-19T11:24:03;15.90;99.90
2212;DHT22;48849;48.758;9.158;2023-10-19T11:26:29;15.60;99.90
2212;DHT22;48849;48.758;9.158;2023-10-19T11:28:57;15.60;99.90
2212;DHT22;48849;48.758;9.158;2023-10-19T11:31:24;15.60;99.90
2212;DHT22;48849;48.758;9.158;2023-10-19T11:33:52;15.60;99.90
2212;DHT22;48849;48.758;9.158;2023-10-19T11:36:22;15.60;99.90
2212;DHT22;48849;48.758;9.158;2023-10-19T11:38:51;15.60;99.90
2212;DHT22;48849;48.758;9.158;2023-10-19T11:41:19;15.70;99.90
2212;DHT22;48849;48.758;9.158;2023-10-19T11:43:46;15.50;99.90
2212;DHT22;48849;48.758;9.158;2023-10-19T11:46:14;15.60;99.90
2212;DHT22;48849;48.758;9.158;2023-10-19T11:48:43;15.60;99.90
2212;DHT22;48849;48.758;9.158;2023-10-19T11:51:11;15.90;99.90
2212;DHT22;48849;48.758;9.158;2023-10-19T11:53:41;15.70;99.90
2212;DHT22;48849;48.758;9.158;2023-10-19T11:56:11;15.70;99.90
2212;DHT22;48849;48.758;9.158;2023-10-19T11:58:39;15.70;99.90
2212;DHT22;48849;48.758;9.158;2023-10-19T12:01:08;15.70;99.90
2212;DHT22;48849;48.758;9.158;2023-10-19T12:03:37;15.80;99.90
2212;DHT22;48849;48.758;9.158;2023-10-19T12:06:05;15.70;99.90
2212;DHT22;48849;48.758;9.158;2023-10-19T12:08:32;16.10;99.90
2212;DHT22;48849;48.758;9.158;2023-10-19T12:11:01;15.80;99.90
2212;DHT22;48849;48.758;9.158;2023-10-19T12:13:29;16.20;99.90
2212;DHT22;48849;48.758;9.158;2023-10-19T12:15:56;16.50;99.90
2212;DHT22;48849;48.758;9.158;2023-10-19T12:18:28;15.70;99.90
2212;DHT22;48849;48.758;9.158;2023-10-19T12:21:00;15.70;99.90
2212;DHT22;48849;48.758;9.158;2023-10-19T12:23:28;16.00;99.90
2212;DHT22;48849;48.758;9.158;2023-10-19T12:25:56;16.10;99.90
2212;DHT22;48849;48.758;9.158;2023-10-19T12:28:24;16.00;99.90
2212;DHT22;48849;48.758;9.158;2023-10-19T12:30:51;15.80;99.90
2212;DHT22;48849;48.758;9.158;2023-10-19T12:33:18;16.60;99.90
2212;DHT22;48849;48.758;9.158;2023-10-19T12:35:45;15.80;99.90
2212;DHT22;48849;48.758;9.158;2023-10-19T12:38:15;15.80;99.90
2212;DHT22;48849;48.758;9.158;2023-10-19T12:40:43;15.80;99.90
2212;DHT22;48849;48.758;9.158;2023-10-19T12:43:12;15.90;99.90
2212;DHT22;48849;48.758;9.158;2023-10-19T12:45:41;15.80;99.90
2212;DHT22;48849;48.758;9.158;2023-10-19T12:48:09;15.80;99.90
2212;DHT22;48849;48.758;9.158;2023-10-19T12:50:37;15.80;99.90
2212;DHT22;48849;48.758;9.158;2023-10-19T12:53:04;16.00;99.90
2212;DHT22;48849;48.758;9.158;2023-10-19T12:55:32;15.80;99.90
2212;DHT22;48849;48.758;9.158;2023-10-19T12:58:00;15.80;99.90
2212;DHT22;48849;48.758;9.158;2023-10-19T13:00:33;16.10;99.90
2212;DHT22;48849;48.758;9.158;2023-10-19T13:03:07;15.80;99.90
2212;DHT22;48849;48.758;9.158;2023-10-19T13:05:35;16.20;99.90
2212;DHT22;48849;48.758;9.158;2023-10-19T13:08:03;15.80;99.90
2212;DHT22;48849;48.758;9.158;2023-10-19T13:10:33;15.80;99.90
2212;DHT22;48849;48.758;9.158;2023-10-19T13:13:00;15.80;99.90
2212;DHT22;48849;48.758;9.158;2023-10-19T13:15:29;15.80;99.90
2212;DHT22;48849;48.758;9.158;2023-10-19T13:17:57;15.80;99.90
2212;DHT22;48849;48.758;9.158;2023-10-19T13:20:32;15.80;99.90
2212;DHT22;48849;48.758;9.158;2023-10-19T13:23:00;15.80;99.90
2212;DHT22;48849;48.758;9.158;2023-10-19T13:25:33;15.80;99.90
2212;DHT22;48849;48.758;9.158;2023-10-19T13:28:13;15.50;99.90
2212;DHT22;48849;48.758;9.158;2023-10-19T13:30:47;15.90;99.90
2212;DHT22;48849;48.758;9.158;2023-10-19T13:33:21;15.80;99.90
2212;DHT22;48849;48.758;9.158;2023-10-19T13:36:04;15.70;99.90
2212;DHT22;48849;48.758;9.158;2023-10-19T13:38:34;15.90;99.90
2212;DHT22;48849;48.758;9.158;2023-10-19T13:41:03;15.80;99.90
2212;DHT22;48849;48.758;9.158;2023-10-19T13:43:33;15.90;99.90
2212;DHT22;48849;48.758;9.158;2023-10-19T13:46:00;15.80;99.90
2212;DHT22;48849;48.758;9.158;2023-10-19T13:48:30;16.00;99.90
2212;DHT22;48849;48.758;9.158;2023-10-19T13:50:58;16.40;99.90
2212;DHT22;48849;48.758;9.158;2023-10-19T13:53:31;15.90;99.90
2212;DHT22;48849;48.758;9.158;2023-10-19T13:55:58;16.00;99.90
2212;DHT22;48849;48.758;9.158;2023-10-19T13:58:50;16.00;99.90
2212;DHT22;48849;48.758;9.158;2023-10-19T14:01:18;15.90;99.90
2212;DHT22;48849;48.758;9.158;2023-10-19T14:03:46;16.00;99.90
2212;DHT22;48849;48.758;9.158;2023-10-19T14:06:15;16.00;99.90
2212;DHT22;48849;48.758;9.158;2023-10-19T14:08:42;16.30;99.90
2212;DHT22;48849;48.758;9.158;2023-10-19T14:11:09;16.20;99.90
2212;DHT22;48849;48.758;9.158;2023-10-19T14:13:56;16.20;99.90
2212;DHT22;48849;48.758;9.158;2023-10-19T14:16:23;16.00;99.90
2212;DHT22;48849;48.758;9.158;2023-10-19T14:18:56;16.00;99.90
2212;DHT22;48849;48.758;9.158;2023-10-19T14:29:22;15.90;99.90
2212;DHT22;48849;48.758;9.158;2023-10-19T14:31:49;16.00;99.90
2212;DHT22;48849;48.758;9.158;2023-10-19T14:34:16;15.90;99.90
2212;DHT22;48849;48.758;9.158;2023-10-19T14:36:43;15.50;99.90
2212;DHT22;48849;48.758;9.158;2023-10-19T14:39:10;15.90;99.90
2212;DHT22;48849;48.758;9.158;2023-10-19T14:41:40;15.60;99.90
2212;DHT22;48849;48.758;9.158;2023-10-19T14:44:13;15.80;99.90
2212;DHT22;48849;48.758;9.158;2023-10-19T14:46:44;15.80;99.90
2212;DHT22;48849;48.758;9.158;2023-10-19T14:49:34;15.80;99.90
2212;DHT22;48849;48.758;9.158;2023-10-19T14:52:03;15.80;99.90
2212;DHT22;48849;48.758;9.158;2023-10-19T14:54:33;15.80;99.90
2212;DHT22;48849;48.758;9.158;2023-10-19T14:57:01;15.90;99.90
2212;DHT22;48849;48.758;9.158;2023-10-19T14:59:31;15.90;99.90
2212;DHT22;48849;48.758;9.158;2023-10-19T15:02:08;15.90;99.90
2212;DHT22;48849;48.758;9.158;2023-10-19T15:04:41;15.90;99.90
2212;DHT22;48849;48.758;9.158;2023-10-19T15:07:11;15.90;99.90
2212;DHT22;48849;48.758;9.158;2023-10-19T15:09:41;15.90;99.90
2212;DHT22;48849;48.758;9.158;2023-10-19T15:12:18;15.90;99.90
2212;DHT22;48849;48.758;9.158;2023-10-19T15:14:45;15.90;99.90
2212;DHT22;48849;48.758;9.158;2023-10-19T15:17:17;15.90;99.90
2212;DHT22;48849;48.758;9.158;2023-10-19T15:19:54;15.90;99.90
2212;DHT22;48849;48.758;9.158;2023-10-19T15:22:31;15.90;99.90
2212;DHT22;48849;48.758;9.158;2023-10-19T15:25:06;16.00;99.90
2212;DHT22;48849;48.758;9.158;2023-10-19T15:31:06;16.00;99.90
2212;DHT22;48849;48.758;9.158;2023-10-19T15:43:15;16.00;99.90
2212;DHT22;48849;48.758;9.158;2023-10-19T15:46:09;16.00;99.90
2212;DHT22;48849;48.758;9.158;2023-10-19T15:48:40;16.00;99.90
2212;DHT22;48849;48.758;9.158;2023-10-19T15:51:07;16.00;99.90
2212;DHT22;48849;48.758;9.158;2023-10-19T15:53:41;16.00;99.90
2212;DHT22;48849;48.758;9.158;2023-10-19T15:56:10;16.00;99.90
2212;DHT22;48849;48.758;9.158;2023-10-19T15:58:59;15.90;99.90
2212;DHT22;48849;48.758;9.158;2023-10-19T16:01:29;16.00;99.90
2212;DHT22;48849;48.758;9.158;2023-10-19T16:04:09;16.00;99.90
2212;DHT22;48849;48.758;9.158;2023-10-19T16:07:05;16.00;99.90
2212;DHT22;48849;48.758;9.158;2023-10-19T16:09:38;16.00;99.90
2212;DHT22;48849;48.758;9.158;2023-10-19T16:12:16;16.00;99.90
2212;DHT22;48849;48.758;9.158;2023-10-19T16:15:07;16.00;99.90
2212;DHT22;48849;48.758;9.158;2023-10-19T16:17:41;16.00;99.90
2212;DHT22;48849;48.758;9.158;2023-10-19T16:20:18;16.00;99.90
2212;DHT22;48849;48.758;9.158;2023-10-19T16:26:23;16.00;99.90
2212;DHT22;48849;48.758;9.158;2023-10-19T16:28:59;15.90;99.90
2212;DHT22;48849;48.758;9.158;2023-10-19T16:31:54;16.00;99.90
2212;DHT22;48849;48.758;9.158;2023-10-19T16:34:43;16.00;99.90
2212;DHT22;48849;48.758;9.158;2023-10-19T16:37:21;16.00;99.90
2212;DHT22;48849;48.758;9.158;2023-10-19T16:39:48;16.00;99.90
2212;DHT22;48849;48.758;9.158;2023-10-19T16:42:22;16.00;99.90
2212;DHT22;48849;48.758;9.158;2023-10-19T16:54:39;16.10;99.90
2212;DHT22;48849;48.758;9.158;2023-10-19T17:03:00;16.00;99.90
2212;DHT22;48849;48.758;9.158;2023-10-19T17:05:26;16.00;99.90
2212;DHT22;48849;48.758;9.158;2023-10-19T17:12:18;16.00;99.90
2212;DHT22;48849;48.758;9.158;2023-10-19T17:15:01;16.00;99.90
2212;DHT22;48849;48.758;9.158;2023-10-19T17:17:37;16.00;99.90
2212;DHT22;48849;48.758;9.158;2023-10-19T17:23:33;16.00;99.90
2212;DHT22;48849;48.758;9.158;2023-10-19T17:26:31;16.00;99.90
2212;DHT22;48849;48.758;9.158;2023-10-19T17:32:37;15.90;99.90
2212;DHT22;48849;48.758;9.158;2023-10-19T18:20:57;16.00;99.90
2212;DHT22;48849;48.758;9.158;2023-10-19T18:26:46;16.00;99.90
2212;DHT22;48849;48.758;9.158;2023-10-19T18:47:57;15.80;99.90
2212;DHT22;48849;48.758;9.158;2023-10-19T18:50:24;15.80;99.90
2212;DHT22;48849;48.758;9.158;2023-10-19T18:56:15;15.80;99.90
2212;DHT22;48849;48.758;9.158;2023-10-19T18:58:42;16.00;99.90
2212;DHT22;48849;48.758;9.158;2023-10-19T19:01:09;15.80;99.90
2212;DHT22;48849;48.758;9.158;2023-10-19T19:03:39;15.80;99.90
2212;DHT22;48849;48.758;9.158;2023-10-19T19:12:32;15.80;99.90
2212;DHT22;48849;48.758;9.158;2023-10-19T19:15:28;15.80;99.90
2212;DHT22;48849;48.758;9.158;2023-10-19T19:17:57;15.80;99.90
2212;DHT22;48849;48.758;9.158;2023-10-19T19:20:26;15.90;99.90
2212;DHT22;48849;48.758;9.158;2023-10-19T19:22:52;15.90;99.90
2212;DHT22;48849;48.758;9.158;2023-10-19T19:25:36;15.90;99.90
2212;DHT22;48849;48.758;9.158;2023-10-19T19:28:10;15.90;99.90
2212;DHT22;48849;48.758;9.158;2023-10-19T19:30:51;15.90;99.90
2212;DHT22;48849;48.758;9.158;2023-10-19T19:33:27;15.90;99.90
2212;DHT22;48849;48.758;9.158;2023-10-19T19:36:42;15.90;99.90
2212;DHT22;48849;48.758;9.158;2023-10-19T19:41:45;15.90;99.90
2212;DHT22;48849;48.758;9.158;2023-10-19T19:44:12;15.90;99.90
2212;DHT22;48849;48.758;9.158;2023-10-19T19:46:39;15.80;99.90
2212;DHT22;48849;48.758;9.158;2023-10-19T19:49:06;15.80;99.90
2212;DHT22;48849;48.758;9.158;2023-10-19T19:51:36;15.80;99.90
2212;DHT22;48849;48.758;9.158;2023-10-19T19:54:03;15.80;99.90
2212;DHT22;48849;48.758;9.158;2023-10-19T19:56:30;15.80;99.90
2212;DHT22;48849;48.758;9.158;2023-10-19T19:59:20;15.80;99.90
2212;DHT22;48849;48.758;9.158;2023-10-19T20:01:47;15.90;99.90
2212;DHT22;48849;48.758;9.158;2023-10-19T20:04:14;15.90;99.90
2212;DHT22;48849;48.758;9.158;2023-10-19T20:06:42;15.90;99.90
2212;DHT22;48849;48.758;9.158;2023-10-19T20:09:09;15.90;99.90
2212;DHT22;48849;48.758;9.158;2023-10-19T20:11:38;15.90;99.90
2212;DHT22;48849;48.758;9.158;2023-10-19T20:14:06;15.90;99.90
2212;DHT22;48849;48.758;9.158;2023-10-19T20:16:36;15.90;99.90
2212;DHT22;48849;48.758;9.158;2023-10-19T20:19:03;15.90;99.90
2212;DHT22;48849;48.758;9.158;2023-10-19T20:21:30;15.90;99.90
2212;DHT22;48849;48.758;9.158;2023-10-19T20:24:06;15.90;99.90
2212;DHT22;48849;48.758;9.158;2023-10-19T20:26:35;15.90;99.90
2212;DHT22;48849;48.758;9.158;2023-10-19T20:29:03;15.90;99.90
2212;DHT22;48849;48.758;9.158;2023-10-19T20:31:31;15.90;99.90
2212;DHT22;48849;48.758;9.158;2023-10-19T20:33:59;15.90;99.90
2212;DHT22;48849;48.758;9.158;2023-10-19T20:36:26;15.90;99.90
2212;DHT22;48849;48.758;9.158;2023-10-19T20:38:55;15.80;99.90
2212;DHT22;48849;48.758;9.158;2023-10-19T20:41:26;15.90;99.90
2212;DHT22;48849;48.758;9.158;2023-10-19T20:43:53;15.80;99.90